Time;durP1;ratioP1;P1;durP2;ratioP2;P2;SDS_P1;SDS_P2;PMS_P1;PMS_P2;Temp;Humidity;BMP_temperature;BMP_pressure;BME280_temperature;BME280_humidity;BME280_pressure;Samples;Min_cycle;Max_cycle;Signal;HPM_P1;HPM_P2
2022/07/02 00:00:55;;;;;;;12.30;4.65;;;;;;;25.83;57.18;99757.41;6327892;28;20040;-71
2022/07/02 00:03:58;;;;;;;;;;;;;;;25.89;56.69;99763.81;6346997;28;20040;-71
2022/07/02 00:07:01;;;;;;;12.70;3.97;;;;;;;25.92;57.74;99790.16;6328428;28;20327;-71
2022/07/02 00:10:03;;;;;;;25.13;4.15;;;;;;;25.76;57.04;99838.56;6328787;28;20043;-70
2022/07/02 00:13:06;;;;;;;13.82;4.38;;;;;;;25.82;57.08;99798.53;6346599;28;20040;-71
2022/07/02 00:16:11;;;;;;;8.73;4.15;;;;;;;25.90;56.71;99786.84;6346250;28;20040;-71
2022/07/02 00:19:15;;;;;;;11.65;4.78;;;;;;;25.99;55.84;99800.91;6346423;28;20031;-71
2022/07/02 00:22:17;;;;;;;10.60;4.22;;;;;;;26.08;55.49;99807.69;6346235;28;20044;-71
2022/07/02 00:25:18;;;;;;;11.07;3.72;;;;;;;26.02;56.45;99787.94;6346080;28;20055;-71
2022/07/02 00:28:22;;;;;;;14.93;4.55;;;;;;;25.92;56.92;99817.72;6345919;28;20043;-71
2022/07/02 00:31:23;;;;;;;16.90;4.10;;;;;;;25.76;57.50;99815.38;6327797;28;20043;-70
2022/07/02 00:34:25;;;;;;;17.50;4.80;;;;;;;25.73;58.18;99792.50;6311468;28;20047;-70
2022/07/02 00:37:27;;;;;;;9.50;4.20;;;;;;;25.64;57.85;99795.56;6345908;28;20039;-70
2022/07/02 00:40:30;;;;;;;16.17;4.13;;;;;;;25.73;57.37;99807.72;6346070;28;20118;-70
2022/07/02 00:43:32;;;;;;;12.80;4.15;;;;;;;25.74;58.20;99791.50;6345672;28;20047;-70
2022/07/02 00:46:34;;;;;;;;;;;;;;;25.77;57.34;99800.16;6328136;28;20051;-70
2022/07/02 00:49:37;;;;;;;11.55;4.70;;;;;;;25.79;58.50;99806.13;6345766;28;19982;-70
2022/07/02 00:52:38;;;;;;;11.68;4.47;;;;;;;25.78;58.64;99805.31;6327587;28;20040;-70
2022/07/02 00:55:39;;;;;;;12.15;4.80;;;;;;;25.74;58.76;99794.19;6310896;28;20040;-71
2022/07/02 00:58:41;;;;;;;14.50;4.35;;;;;;;25.73;58.83;99794.38;6294140;28;20508;-71
2022/07/02 01:01:45;;;;;;;19.08;4.93;;;;;;;25.69;58.58;99788.59;6345755;28;20478;-71
2022/07/02 01:04:48;;;;;;;12.75;4.22;;;;;;;25.67;58.78;99784.47;6327454;28;20046;-71
2022/07/02 01:11:11;;;;;;;10.32;4.05;;;;;;;25.43;59.29;99801.81;6345383;28;20089;-71
2022/07/02 01:14:16;;;;;;;14.10;4.13;;;;;;;25.23;60.51;99799.03;6345598;28;20042;-70
2022/07/02 01:17:18;;;;;;;11.75;4.25;;;;;;;25.08;61.28;99793.75;6345407;28;20114;-70
2022/07/02 01:20:19;;;;;;;11.63;4.30;;;;;;;25.04;62.75;99800.50;6345554;28;20420;-70
2022/07/02 01:23:20;;;;;;;11.52;4.20;;;;;;;24.99;63.45;99793.06;6310687;28;20042;-71
2022/07/02 01:26:20;;;;;;;9.48;4.68;;;;;;;24.91;63.65;99794.06;6310591;28;20036;-71
2022/07/02 01:29:22;;;;;;;11.65;4.22;;;;;;;24.86;64.26;99796.47;6327348;28;20529;-71
2022/07/02 01:32:23;;;;;;;;;;;;;;;24.97;63.79;99813.78;6327786;28;20126;-71
2022/07/02 01:35:24;;;;;;;8.53;4.17;;;;;;;24.89;63.40;99816.59;6345277;28;20022;-71
2022/07/02 01:38:25;;;;;;;16.38;4.63;;;;;;;24.76;65.72;99811.97;6327296;28;20096;-70
2022/07/02 01:41:41;;;;;;;10.25;4.22;;;;;;;24.81;65.63;99814.06;6331935;28;20448;-70
2022/07/02 01:44:45;;;;;;;10.57;4.38;;;;;;;24.94;64.22;99819.53;6317154;28;20046;-70
2022/07/02 01:47:46;;;;;;;9.40;4.15;;;;;;;24.85;65.83;99821.50;6331560;28;20051;-70
2022/07/02 01:50:47;;;;;;;9.45;4.78;;;;;;;24.81;65.66;99820.25;6349728;28;20040;-71
2022/07/02 01:53:51;;;;;;;6.68;4.43;;;;;;;24.72;66.59;99822.19;6331814;28;20067;-70
2022/07/02 01:56:54;;;;;;;11.18;4.43;;;;;;;24.68;66.58;99825.44;6315004;28;20503;-70
2022/07/02 01:59:56;;;;;;;9.80;4.05;;;;;;;24.70;67.42;99828.75;6349651;28;20486;-71
2022/07/02 02:02:57;;;;;;;10.02;4.72;;;;;;;24.66;67.05;99830.97;6331434;28;20040;-70
2022/07/02 02:05:58;;;;;;;19.58;5.15;;;;;;;24.63;68.96;99835.88;6331289;28;20047;-71
2022/07/02 02:08:59;;;;;;;14.05;4.55;;;;;;;24.60;67.78;99841.56;6349468;28;20035;-71
2022/07/02 02:12:00;;;;;;;9.23;4.75;;;;;;;24.50;68.25;99845.41;6314623;28;20035;-71
2022/07/02 02:15:02;;;;;;;16.90;4.50;;;;;;;24.55;69.49;99846.66;6314542;28;20616;-70
2022/07/02 02:18:04;;;;;;;14.45;4.93;;;;;;;24.58;68.29;99846.28;6349142;28;20060;-70
2022/07/02 02:21:05;;;;;;;10.93;4.80;;;;;;;24.59;69.06;99846.09;6314109;28;20045;-70
2022/07/02 02:24:06;;;;;;;10.07;4.57;;;;;;;24.56;67.18;99849.13;6349176;28;20043;-71
2022/07/02 02:27:07;;;;;;;;;;;;;;;24.56;67.74;99867.78;6349410;28;20040;-71
2022/07/02 02:30:09;;;;;;;9.52;4.45;;;;;;;24.47;68.47;99875.06;6347986;28;19972;-71
2022/07/02 02:33:09;;;;;;;11.05;4.68;;;;;;;24.30;68.91;99886.97;6330835;28;20043;-70
2022/07/02 02:36:10;;;;;;;18.73;5.53;;;;;;;24.35;71.93;99881.91;6313940;28;20130;-71
2022/07/02 02:39:11;;;;;;;14.53;4.80;;;;;;;24.25;69.83;99903.50;6313908;28;20504;-70
2022/07/02 02:42:12;;;;;;;17.90;5.60;;;;;;;24.11;70.06;99913.19;6297058;28;20477;-71
2022/07/02 02:45:13;;;;;;;10.73;4.57;;;;;;;24.21;70.55;99912.91;6330686;28;20302;-71
2022/07/02 02:48:15;;;;;;;14.98;5.38;;;;;;;24.25;72.89;99916.84;6330102;28;20067;-70
2022/07/02 02:51:16;;;;;;;12.07;5.18;;;;;;;24.10;71.09;99929.38;6348053;28;20043;-71
2022/07/02 02:54:18;;;;;;;15.60;5.50;;;;;;;24.10;72.20;99926.72;6348365;28;20505;-70
2022/07/02 02:57:18;;;;;;;17.67;5.07;;;;;;;24.09;72.91;99941.03;6313338;28;20039;-71
2022/07/02 03:00:22;;;;;;;10.73;5.27;;;;;;;23.97;72.54;99962.00;6296709;28;20516;-71
2022/07/02 03:03:23;;;;;;;11.27;5.03;;;;;;;23.90;73.17;99985.84;6313124;28;20652;-71
2022/07/02 03:06:24;;;;;;;13.73;5.53;;;;;;;23.94;72.77;99997.00;6329921;28;20095;-70
2022/07/02 03:09:25;;;;;;;10.85;4.80;;;;;;;23.99;72.51;99994.63;6313162;28;20032;-71
2022/07/02 03:12:26;;;;;;;14.70;5.10;;;;;;;24.02;73.42;99980.91;6329728;28;20100;-71
2022/07/02 03:15:27;;;;;;;10.82;5.63;;;;;;;24.04;74.44;99981.56;6329680;28;20282;-71
2022/07/02 03:18:28;;;;;;;13.70;5.25;;;;;;;23.99;72.78;99991.09;6347714;28;20040;-69
2022/07/02 03:21:29;;;;;;;10.37;4.80;;;;;;;23.86;73.09;99999.72;6312909;28;21081;-71
2022/07/02 03:24:30;;;;;;;9.45;5.13;;;;;;;23.97;73.03;99993.97;6329637;28;20280;-69
2022/07/02 03:27:31;;;;;;;18.77;5.00;;;;;;;23.97;72.57;99990.47;6347507;28;20517;-70
2022/07/02 03:30:32;;;;;;;8.75;4.97;;;;;;;23.91;74.33;99990.19;6347477;28;20035;-71
2022/07/02 03:33:33;;;;;;;12.43;4.83;;;;;;;23.91;73.70;99997.38;6312354;28;20052;-70
2022/07/02 03:36:34;;;;;;;15.83;5.17;;;;;;;23.84;73.82;100010.56;6347397;28;20403;-71
2022/07/02 03:39:35;;;;;;;15.02;5.50;;;;;;;23.91;73.58;100024.00;6329214;28;20308;-71
2022/07/02 03:42:37;;;;;;;10.50;5.10;;;;;;;23.97;73.60;100028.63;6329180;28;20048;-70
2022/07/02 03:45:38;;;;;;;12.98;4.93;;;;;;;23.96;74.93;100037.59;6312088;28;20047;-70
2022/07/02 03:48:39;;;;;;;12.40;6.05;;;;;;;23.96;75.62;100040.25;6312113;28;20054;-70
2022/07/02 03:51:40;;;;;;;18.43;5.40;;;;;;;24.01;73.51;100042.38;6346895;28;20039;-70
2022/07/02 03:54:41;;;;;;;13.13;5.38;;;;;;;24.03;74.06;100046.53;6346910;28;20047;-70
2022/07/02 03:57:43;;;;;;;10.50;5.20;;;;;;;24.04;74.77;100048.19;6328688;28;20040;-71
2022/07/02 04:00:43;;;;;;;10.17;5.40;;;;;;;24.08;73.73;100062.81;6311904;28;20306;-70
2022/07/02 04:03:44;;;;;;;14.23;5.23;;;;;;;24.10;73.22;100084.78;6294352;28;20122;-70
2022/07/02 04:06:45;;;;;;;14.95;5.43;;;;;;;24.19;74.49;100087.34;6328592;28;20078;-70
2022/07/02 04:09:47;;;;;;;13.00;5.35;;;;;;;24.25;75.98;100090.13;6328340;28;20047;-71
2022/07/02 04:12:48;;;;;;;13.00;5.17;;;;;;;24.16;74.92;100080.56;6328328;28;20131;-70
2022/07/02 04:15:49;;;;;;;9.43;4.63;;;;;;;24.13;73.74;100084.44;6328489;28;20044;-70
2022/07/02 04:18:50;;;;;;;16.08;5.43;;;;;;;23.58;78.42;100090.84;6328261;28;20040;-70
2022/07/02 04:21:51;;;;;;;8.82;5.18;;;;;;;23.62;77.53;100094.00;6328381;28;20043;-70
2022/07/02 04:24:52;;;;;;;9.00;5.20;;;;;;;23.57;80.04;100091.84;6311360;28;20145;-70
2022/07/02 04:27:53;;;;;;;9.60;4.65;;;;;;;23.57;78.49;100093.66;6328169;28;20489;-70
2022/07/02 04:30:59;;;;;;;11.88;5.05;;;;;;;23.54;78.60;100109.00;6328026;28;20036;-71
2022/07/02 04:34:00;;;;;;;10.40;5.78;;;;;;;23.44;80.95;100119.06;6311493;28;20047;-70
2022/07/02 04:37:03;;;;;;;11.20;5.28;;;;;;;23.51;81.06;100121.81;6328095;28;20469;-70
2022/07/02 04:40:06;;;;;;;8.65;5.40;;;;;;;23.40;81.19;100120.41;6346098;28;20558;-70
2022/07/02 04:43:07;;;;;;;12.30;5.07;;;;;;;23.52;81.27;100120.84;6345886;28;20112;-70
2022/07/02 04:46:08;;;;;;;14.90;5.47;;;;;;;23.53;81.63;100123.34;6327740;28;20501;-71
2022/07/02 04:49:09;;;;;;;10.00;5.30;;;;;;;23.52;82.85;100137.63;6294478;28;20039;-71
2022/07/02 04:52:10;;;;;;;11.80;4.87;;;;;;;23.61;82.95;100141.06;6345762;28;20662;-70
2022/07/02 04:55:11;;;;;;;11.75;5.18;;;;;;;23.75;81.71;100131.50;6345867;28;20375;-70
2022/07/02 04:58:12;;;;;;;9.63;5.33;;;;;;;23.90;80.89;100131.59;6345816;28;20039;-70
2022/07/02 05:01:13;;;;;;;9.50;5.00;;;;;;;23.95;82.70;100129.22;6345852;28;20489;-69
2022/07/02 05:04:15;;;;;;;7.65;4.63;;;;;;;24.00;82.00;100128.69;6310998;28;20044;-71
2022/07/02 05:07:16;;;;;;;10.35;4.85;;;;;;;24.00;81.27;100121.50;6327657;28;20458;-70
2022/07/02 05:10:18;;;;;;;9.48;5.20;;;;;;;24.07;83.65;100118.94;6310805;28;20035;-70
2022/07/02 05:13:18;;;;;;;10.67;5.10;;;;;;;24.08;81.64;100109.97;6347161;28;20434;-71
2022/07/02 05:16:20;;;;;;;8.40;4.90;;;;;;;24.20;82.15;100121.03;6350664;28;20046;-71
2022/07/02 05:19:21;;;;;;;8.57;4.95;;;;;;;24.26;80.46;100122.97;6350691;28;20044;-70
2022/07/02 05:22:24;;;;;;;8.40;5.07;;;;;;;24.32;79.38;100130.25;6332553;28;20096;-71
2022/07/02 05:25:25;;;;;;;6.32;4.57;;;;;;;24.43;81.52;100123.63;6332775;28;20394;-70
2022/07/02 05:28:28;;;;;;;10.45;4.20;;;;;;;24.50;78.67;100132.56;6332210;28;20043;-70
2022/07/02 05:31:29;;;;;;;12.38;4.57;;;;;;;24.63;77.71;100131.97;6315516;28;20092;-71
2022/07/02 05:34:30;;;;;;;9.65;4.70;;;;;;;24.76;77.72;100120.63;6315243;28;20118;-71
2022/07/02 05:37:31;;;;;;;8.80;4.82;;;;;;;24.81;77.03;100118.22;6315274;28;20103;-71
2022/07/02 05:40:32;;;;;;;6.80;4.00;;;;;;;24.98;75.04;100122.38;6315059;28;20092;-71
2022/07/02 05:43:33;;;;;;;8.17;4.63;;;;;;;25.08;75.07;100111.38;6350080;28;20035;-70
2022/07/02 05:46:34;;;;;;;16.00;4.60;;;;;;;25.20;71.53;100115.22;6331748;28;20054;-71
2022/07/02 05:49:35;;;;;;;;;;;;;;;25.30;73.41;100113.13;6332316;28;20047;-70
2022/07/02 05:52:36;;;;;;;7.65;4.10;;;;;;;25.41;72.51;100116.31;6349864;28;20056;-70
2022/07/02 05:55:37;;;;;;;10.77;4.05;;;;;;;25.53;73.23;100112.97;6314829;28;20036;-70
2022/07/02 05:58:39;;;;;;;10.95;4.32;;;;;;;25.80;71.25;100123.94;6331682;28;20494;-70
2022/07/02 06:01:40;;;;;;;;;;;;;;;26.01;69.80;100120.44;6332051;28;20047;-70
2022/07/02 06:04:41;;;;;;;14.82;4.55;;;;;;;26.10;68.16;100126.47;6349594;28;19992;-70
2022/07/02 06:07:43;;;;;;;12.87;4.30;;;;;;;26.32;68.65;100120.06;6349778;28;20478;-70
2022/07/02 06:10:44;;;;;;;11.40;3.85;;;;;;;26.37;66.22;100116.78;6298008;28;20486;-70
2022/07/02 06:13:47;;;;;;;7.10;3.83;;;;;;;26.55;66.04;100116.28;6331230;28;20051;-70
2022/07/02 06:16:48;;;;;;;11.02;4.22;;;;;;;26.67;65.32;100112.09;6349283;28;20629;-70
2022/07/02 06:19:48;;;;;;;12.80;3.88;;;;;;;26.60;64.38;100113.88;6314255;28;20042;-70
2022/07/02 06:22:49;;;;;;;7.38;3.95;;;;;;;26.81;64.26;100110.31;6314291;28;20040;-71
2022/07/02 06:25:50;;;;;;;11.38;3.92;;;;;;;27.10;61.89;100111.06;6330229;28;20050;-70
2022/07/02 06:28:51;;;;;;;6.90;3.58;;;;;;;27.16;60.67;100114.75;6349061;28;20084;-71
2022/07/02 06:31:52;;;;;;;6.80;3.58;;;;;;;27.30;60.05;100114.66;6330202;28;20036;-71
2022/07/02 06:34:53;;;;;;;5.18;3.67;;;;;;;27.16;60.40;100123.63;6314503;28;20504;-72
2022/07/02 06:37:54;;;;;;;5.25;3.42;;;;;;;27.35;59.35;100121.25;6330140;28;20043;-72
2022/07/02 06:40:56;;;;;;;7.60;3.55;;;;;;;27.65;58.40;100130.56;6348785;28;20044;-71
2022/07/02 06:43:57;;;;;;;8.45;3.05;;;;;;;27.72;57.90;100135.97;6314017;28;20092;-71
2022/07/02 06:46:58;;;;;;;;;;;;;;;28.08;56.81;100140.16;6348922;28;20130;-71
2022/07/02 06:50:00;;;;;;;8.90;3.40;;;;;;;28.38;53.95;100140.53;6313562;28;19926;-71
2022/07/02 06:53:01;;;;;;;3.55;2.78;;;;;;;28.55;52.60;100145.50;6313735;28;20039;-71
2022/07/02 06:56:02;;;;;;;7.78;2.90;;;;;;;28.70;54.21;100141.56;6330354;28;20043;-71
2022/07/02 06:59:05;;;;;;;6.47;3.08;;;;;;;28.99;51.47;100143.94;6348176;28;20063;-72
2022/07/02 07:02:06;;;;;;;7.13;3.17;;;;;;;29.16;51.71;100137.09;6348176;28;20122;-71
2022/07/02 07:05:07;;;;;;;5.28;3.00;;;;;;;29.25;52.30;100137.66;6348050;28;20040;-71
2022/07/02 07:08:08;;;;;;;5.80;3.03;;;;;;;29.29;51.92;100142.38;6321022;28;20115;-71
2022/07/02 07:11:10;;;;;;;6.57;3.13;;;;;;;29.20;50.52;100119.50;6298405;28;20089;-71
2022/07/02 07:14:11;;;;;;;9.55;3.30;;;;;;;29.46;52.72;100128.44;6321518;28;20043;-71
2022/07/02 07:17:12;;;;;;;6.82;3.00;;;;;;;29.51;50.98;100125.97;6285807;28;20308;-71
2022/07/02 07:20:16;;;;;;;7.63;3.35;;;;;;;29.66;50.07;100120.28;6304485;28;20036;-72
2022/07/02 07:23:17;;;;;;;6.40;3.10;;;;;;;29.93;48.53;100123.59;6305081;28;20067;-72
2022/07/02 07:26:18;;;;;;;5.47;2.85;;;;;;;30.00;45.53;100135.16;6304480;28;20494;-72
2022/07/02 07:29:18;;;;;;;6.03;2.85;;;;;;;30.07;47.34;100138.59;6287664;28;20410;-71
2022/07/02 07:32:20;;;;;;;6.22;2.85;;;;;;;30.23;49.41;100142.63;6286827;28;20048;-71
2022/07/02 07:35:21;;;;;;;7.20;2.95;;;;;;;30.35;49.40;100158.06;6302927;28;20067;-70
2022/07/02 07:38:21;;;;;;;7.50;3.45;;;;;;;30.18;49.68;100169.34;6302155;28;20036;-71
2022/07/02 07:41:23;;;;;;;8.73;3.70;;;;;;;30.20;50.39;100175.31;6303804;28;20126;-71
2022/07/02 07:44:24;;;;;;;6.22;3.20;;;;;;;30.10;51.56;100175.84;6303351;28;20044;-71
2022/07/02 07:47:25;;;;;;;8.18;3.72;;;;;;;29.82;52.56;100183.50;6270240;28;20663;-71
2022/07/02 07:50:26;;;;;;;7.35;3.25;;;;;;;29.89;51.85;100187.75;6303823;28;20474;-71
2022/07/02 07:53:27;;;;;;;7.03;3.35;;;;;;;29.96;52.01;100185.06;6307599;28;20051;-71
2022/07/02 07:56:28;;;;;;;7.70;3.60;;;;;;;30.40;51.67;100190.53;6313816;28;20084;-71
2022/07/02 07:59:29;;;;;;;6.25;3.03;;;;;;;30.52;50.23;100200.34;6329626;28;20421;-71
2022/07/02 08:02:30;;;;;;;7.63;3.33;;;;;;;30.71;49.46;100189.59;6330607;28;20067;-71
2022/07/02 08:05:31;;;;;;;5.75;3.50;;;;;;;30.88;51.09;100195.25;6303180;28;20052;-71
2022/07/02 08:08:32;;;;;;;8.85;3.60;;;;;;;31.06;50.07;100189.06;6303577;28;20085;-72
2022/07/02 08:11:34;;;;;;;5.75;3.30;;;;;;;31.05;50.38;100182.84;6303327;28;20540;-71
2022/07/02 08:14:35;;;;;;;10.95;3.45;;;;;;;31.32;48.25;100177.94;6303446;28;20043;-71
2022/07/02 08:17:37;;;;;;;6.40;3.58;;;;;;;31.17;49.15;100182.88;6286820;28;20036;-71
2022/07/02 08:20:38;;;;;;;11.77;3.42;;;;;;;31.40;54.02;100179.50;6321324;28;20055;-72
2022/07/02 08:23:39;;;;;;;9.85;3.28;;;;;;;31.21;47.35;100185.97;6321217;28;20086;-71
2022/07/02 08:26:40;;;;;;;6.78;3.75;;;;;;;31.32;47.83;100177.94;6303225;28;20036;-70
2022/07/02 08:29:41;;;;;;;5.72;3.33;;;;;;;31.65;48.40;100178.56;6286484;28;20126;-71
2022/07/02 08:32:41;;;;;;;;;;;;;;;31.88;47.40;100194.00;6321511;28;20032;-71
2022/07/02 08:35:43;;;;;;;4.93;3.50;;;;;;;32.14;47.95;100192.78;6303206;28;20001;-70
2022/07/02 08:38:45;;;;;;;7.72;3.60;;;;;;;32.10;50.53;100191.59;6320993;28;20052;-71
2022/07/02 08:41:48;;;;;;;;;;;;;;;32.28;44.95;100196.91;6336412;28;20044;-71
2022/07/02 08:44:54;;;;;;;6.47;3.10;;;;;;;31.94;45.70;100193.09;6345732;28;19927;-70
2022/07/02 08:47:55;;;;;;;4.88;3.15;;;;;;;32.48;45.16;100204.69;6326796;28;20059;-71
2022/07/02 08:50:57;;;;;;;9.70;3.83;;;;;;;32.39;45.09;100197.16;6326061;28;20527;-71
2022/07/02 08:54:00;;;;;;;7.32;3.05;;;;;;;32.10;45.75;100195.16;6293753;28;20104;-71
2022/07/02 08:57:03;;;;;;;5.35;3.28;;;;;;;32.52;49.78;100191.53;6344944;28;20123;-71
2022/07/02 09:00:05;;;;;;;7.22;3.78;;;;;;;32.56;50.13;100200.84;6345003;28;20036;-71
2022/07/02 09:03:09;;;;;;;6.95;3.35;;;;;;;32.60;42.86;100198.50;6324172;28;20035;-71
2022/07/02 09:06:11;;;;;;;5.65;3.20;;;;;;;32.22;42.20;100202.41;6326349;28;20489;-71
2022/07/02 09:09:12;;;;;;;8.10;3.50;;;;;;;32.74;48.38;100199.91;6344336;28;20088;-71
2022/07/02 09:12:14;;;;;;;7.32;3.75;;;;;;;33.03;47.00;100198.09;6325897;28;20435;-71
2022/07/02 09:15:16;;;;;;;10.40;3.20;;;;;;;33.30;43.57;100192.16;6343126;28;20028;-71
2022/07/02 09:18:17;;;;;;;;;;;;;;;33.29;48.66;100185.09;6326584;28;20036;-71
2022/07/02 09:21:17;;;;;;;6.07;3.67;;;;;;;33.14;41.05;100182.09;6326341;28;19920;-71
2022/07/02 09:24:39;;;;;;;8.40;3.58;;;;;;;32.99;44.87;100179.84;6310522;28;20043;-71
2022/07/02 09:27:40;;;;;;;4.93;3.20;;;;;;;33.26;41.78;100182.91;6337823;28;20120;-71
2022/07/02 09:30:42;;;;;;;9.57;3.53;;;;;;;33.33;44.74;100191.66;6313812;28;20403;-70
2022/07/02 09:33:43;;;;;;;11.57;3.40;;;;;;;33.38;40.77;100186.38;6323670;28;20420;-72
2022/07/02 09:36:44;;;;;;;6.45;3.30;;;;;;;33.17;41.60;100190.53;6318979;28;20051;-70
2022/07/02 09:39:47;;;;;;;8.82;3.80;;;;;;;32.41;45.09;100182.38;6301217;28;20050;-71
2022/07/02 09:42:48;;;;;;;8.65;3.30;;;;;;;32.31;44.43;100182.16;6301660;28;20047;-71
2022/07/02 09:45:49;;;;;;;6.93;3.28;;;;;;;32.67;43.25;100189.19;6320284;28;20575;-71
2022/07/02 09:48:51;;;;;;;6.45;3.30;;;;;;;33.33;42.24;100199.78;6285371;28;20059;-71
2022/07/02 09:51:54;;;;;;;7.47;4.18;;;;;;;33.18;41.84;100192.19;6319737;28;20047;-71
2022/07/02 09:54:55;;;;;;;7.65;3.35;;;;;;;33.81;40.21;100186.91;6301828;28;20036;-71
2022/07/02 09:57:59;;;;;;;9.73;3.35;;;;;;;33.90;41.40;100190.84;6318343;28;20048;-71
2022/07/02 10:01:02;;;;;;;5.97;3.53;;;;;;;33.64;41.00;100201.22;6304311;28;20055;-71
2022/07/02 10:04:03;;;;;;;9.40;3.70;;;;;;;33.41;40.90;100198.59;6306073;28;20043;-71
2022/07/02 10:07:05;;;;;;;5.82;3.53;;;;;;;32.66;43.43;100192.97;6289582;28;20036;-71
2022/07/02 10:10:07;;;;;;;9.93;3.17;;;;;;;33.56;42.18;100193.44;6324085;28;20113;-71
2022/07/02 10:13:10;;;;;;;8.20;4.10;;;;;;;34.17;40.71;100195.66;6306072;28;20040;-71
2022/07/02 10:16:17;;;;;;;8.73;3.42;;;;;;;34.54;41.16;100187.81;6324062;28;20043;-71
2022/07/02 10:19:21;;;;;;;6.70;3.22;;;;;;;35.01;39.75;100190.09;6324430;28;20374;-71
2022/07/02 10:22:23;;;;;;;5.13;3.20;;;;;;;34.93;37.84;100190.56;6341028;28;20068;-71
2022/07/02 10:25:26;;;;;;;9.63;3.20;;;;;;;34.91;37.73;100195.41;6331657;28;20055;-72
2022/07/02 10:28:27;;;;;;;5.70;2.92;;;;;;;34.83;38.05;100187.72;6315341;28;20039;-72
2022/07/02 10:31:34;;;;;;;8.95;3.30;;;;;;;34.61;40.38;100180.31;6314542;28;20105;-71
2022/07/02 10:35:05;;;;;;;4.32;2.80;;;;;;;34.88;38.70;100183.19;6331712;28;20594;-71
2022/07/02 10:38:06;;;;;;;5.53;3.05;;;;;;;35.21;38.13;100181.44;6347435;28;20090;-71
2022/07/02 10:41:09;;;;;;;9.27;3.47;;;;;;;35.25;37.09;100190.72;6313989;28;20082;-72
2022/07/02 10:44:10;;;;;;;5.82;3.25;;;;;;;35.04;36.62;100194.19;6348900;28;20114;-71
2022/07/02 10:47:26;;;;;;;8.02;3.30;;;;;;;35.11;38.73;100187.53;6329937;28;20051;-72
2022/07/02 10:50:39;;;;;;;12.23;3.88;;;;;;;33.50;39.36;100189.00;6314891;28;20115;-71
2022/07/02 10:53:48;;;;;;;7.47;3.25;;;;;;;34.52;39.99;100188.06;6341119;28;20047;-71
2022/07/02 10:56:51;;;;;;;5.97;3.60;;;;;;;33.71;41.91;100174.84;6330479;28;20459;-71
2022/07/02 10:59:52;;;;;;;8.57;3.60;;;;;;;34.26;41.27;100175.22;6313669;28;20565;-71
2022/07/02 11:02:55;;;;;;;9.52;3.30;;;;;;;34.43;40.06;100189.56;6330219;28;20047;-71
2022/07/02 11:06:05;;;;;;;5.30;3.30;;;;;;;34.74;38.59;100194.63;6330181;28;20096;-71
2022/07/02 11:09:06;;;;;;;4.90;3.13;;;;;;;34.73;39.61;100188.38;6329901;28;20108;-71
2022/07/02 11:12:07;;;;;;;6.35;3.70;;;;;;;35.06;39.43;100194.78;6329652;28;20039;-71
2022/07/02 11:15:20;;;;;;;7.00;3.60;;;;;;;35.56;36.80;100184.78;6329897;28;20039;-71
2022/07/02 11:18:21;;;;;;;4.45;3.10;;;;;;;35.65;36.32;100196.84;6347968;28;20039;-72
2022/07/02 11:21:27;;;;;;;5.53;3.40;;;;;;;34.64;37.45;100182.59;6329757;28;20131;-72
2022/07/02 11:24:32;;;;;;;4.15;3.30;;;;;;;35.25;36.91;100181.72;6347144;28;20096;-72
2022/07/02 11:27:34;;;;;;;6.00;3.10;;;;;;;34.55;38.57;100178.63;6346209;28;20051;-72
2022/07/02 11:30:35;;;;;;;6.45;3.40;;;;;;;34.30;38.67;100174.47;6311510;28;20059;-70
2022/07/02 11:33:36;;;;;;;6.18;3.60;;;;;;;35.12;38.34;100185.63;6346377;28;20122;-71
2022/07/02 11:36:38;;;;;;;5.10;3.33;;;;;;;34.86;36.72;100184.47;6328665;28;20039;-71
2022/07/02 11:39:39;;;;;;;11.15;3.60;;;;;;;34.64;40.17;100184.44;6328399;28;20481;-71
2022/07/02 11:42:40;;;;;;;8.98;3.80;;;;;;;35.28;37.17;100186.66;6295281;28;20063;-71
2022/07/02 11:45:43;;;;;;;8.15;3.42;;;;;;;34.90;37.26;100177.47;6312373;28;20043;-71
2022/07/02 11:48:44;;;;;;;9.50;3.88;;;;;;;35.47;36.05;100181.69;6328886;28;20051;-71
2022/07/02 11:51:46;;;;;;;10.50;3.83;;;;;;;35.84;37.50;100181.00;6311965;28;20418;-70
2022/07/02 11:54:47;;;;;;;9.93;3.40;;;;;;;35.50;36.90;100192.03;6328875;28;20051;-70
2022/07/02 11:57:51;;;;;;;9.23;3.50;;;;;;;35.53;36.37;100188.00;6329051;28;20478;-72
2022/07/02 12:00:52;;;;;;;6.22;3.65;;;;;;;35.51;37.01;100196.41;6328807;28;20386;-71
2022/07/02 12:03:58;;;;;;;6.57;3.25;;;;;;;35.52;36.61;100192.59;6328687;28;20043;-72
2022/07/02 12:06:59;;;;;;;5.57;3.78;;;;;;;35.37;36.87;100189.72;6346695;28;20127;-73
2022/07/02 12:10:03;;;;;;;8.50;3.47;;;;;;;35.09;37.02;100183.44;6328565;28;20474;-72
2022/07/02 12:13:08;;;;;;;8.15;3.85;;;;;;;35.04;37.52;100184.16;6312013;28;20054;-73
2022/07/02 12:16:12;;;;;;;6.65;3.88;;;;;;;35.54;37.25;100182.31;6346614;28;20104;-72
2022/07/02 12:19:15;;;;;;;7.07;3.67;;;;;;;35.41;36.69;100180.81;6346462;28;20040;-72
2022/07/02 12:22:30;;;;;;;5.97;3.33;;;;;;;35.58;36.20;100183.44;6327640;28;20050;-72
2022/07/02 12:25:44;;;;;;;9.15;4.80;;;;;;;36.13;38.13;100175.25;6346457;28;20096;-72
2022/07/02 12:32:10;;;;;;;7.30;3.72;;;;;;;36.08;37.20;100168.72;6346117;28;20177;-69
2022/07/02 12:35:11;;;;;;;7.63;3.30;;;;;;;36.17;36.11;100165.53;6327863;28;20489;-70
2022/07/02 12:38:12;;;;;;;6.82;3.63;;;;;;;35.18;36.23;100165.66;6346138;28;20046;-70
2022/07/02 12:41:13;;;;;;;6.32;3.45;;;;;;;35.10;37.72;100163.38;6328141;28;20043;-70
2022/07/02 12:44:22;;;;;;;10.75;4.05;;;;;;;34.39;36.13;100153.22;6311152;28;20050;-70
2022/07/02 12:47:27;;;;;;;14.15;3.78;;;;;;;35.01;37.60;100157.59;6326664;28;20405;-73
2022/07/02 12:50:30;;;;;;;6.25;3.42;;;;;;;35.36;36.49;100148.22;6331985;28;20039;-70
2022/07/02 12:53:31;;;;;;;7.68;3.70;;;;;;;35.14;35.79;100139.28;6331857;28;20068;-71
2022/07/02 12:56:41;;;;;;;10.00;3.50;;;;;;;35.07;35.97;100140.31;6321711;28;20478;-70
2022/07/02 12:59:42;;;;;;;5.45;3.63;;;;;;;35.23;35.53;100130.47;6327623;28;20395;-70
2022/07/02 13:02:43;;;;;;;5.70;3.25;;;;;;;35.04;36.04;100129.13;6343809;28;20043;-70
2022/07/02 13:05:49;;;;;;;8.90;3.70;;;;;;;34.42;36.96;100125.63;6309890;28;20105;-70
2022/07/02 13:08:49;;;;;;;8.20;3.97;;;;;;;35.12;36.54;100134.09;6326607;28;20464;-72
2022/07/02 13:11:50;;;;;;;5.88;3.90;;;;;;;34.34;38.87;100136.06;6309719;28;20046;-70
2022/07/02 13:14:51;;;;;;;5.93;3.80;;;;;;;33.84;40.30;100132.31;6326698;28;20455;-70
2022/07/02 13:17:52;;;;;;;9.93;4.50;;;;;;;33.75;43.56;100129.19;6310853;28;20170;-70
2022/07/02 13:20:53;;;;;;;8.02;4.10;;;;;;;34.00;41.31;100126.06;6327721;28;20101;-70
2022/07/02 13:23:56;;;;;;;10.27;4.00;;;;;;;34.02;40.71;100126.66;6327588;28;20044;-70
2022/07/02 13:26:57;;;;;;;11.65;3.92;;;;;;;34.42;41.63;100131.03;6327686;28;20051;-70
2022/07/02 13:29:59;;;;;;;7.68;4.05;;;;;;;33.95;40.36;100125.16;6294057;28;20062;-70
2022/07/02 13:33:00;;;;;;;12.57;4.15;;;;;;;33.26;42.76;100129.63;6310780;28;20039;-70
2022/07/02 13:36:04;;;;;;;6.00;4.18;;;;;;;33.36;42.86;100120.91;6348254;28;20031;-69
2022/07/02 13:39:05;;;;;;;7.72;4.30;;;;;;;33.96;39.99;100119.50;6315941;28;20044;-69
2022/07/02 13:42:06;;;;;;;7.38;4.32;;;;;;;33.59;40.72;100117.25;6315553;28;20485;-70
2022/07/02 13:45:08;;;;;;;5.68;4.05;;;;;;;34.26;39.90;100118.34;6315304;28;20092;-70
2022/07/02 13:48:09;;;;;;;7.00;3.95;;;;;;;34.29;39.42;100115.16;6350164;28;20405;-70
2022/07/02 13:51:11;;;;;;;8.55;4.32;;;;;;;34.35;39.59;100113.31;6314642;28;20047;-70
2022/07/02 13:54:11;;;;;;;7.32;4.63;;;;;;;34.34;39.03;100109.00;6348561;28;20405;-70
2022/07/02 13:57:16;;;;;;;9.07;4.45;;;;;;;34.26;38.72;100105.63;6348653;28;20036;-70
2022/07/02 14:00:17;;;;;;;6.05;4.13;;;;;;;33.85;40.03;100106.88;6345794;28;20043;-70
2022/07/02 14:03:18;;;;;;;7.88;4.25;;;;;;;33.34;41.83;100114.91;6311907;28;20039;-70
2022/07/02 14:06:20;;;;;;;6.72;4.32;;;;;;;33.56;40.09;100116.91;6330396;28;20525;-70
2022/07/02 14:09:20;;;;;;;7.60;4.10;;;;;;;33.74;40.85;100124.81;6348487;28;20429;-71
2022/07/02 14:12:22;;;;;;;11.05;4.38;;;;;;;33.63;41.34;100118.44;6330327;28;20031;-70
2022/07/02 14:15:22;;;;;;;7.32;4.30;;;;;;;33.77;39.94;100115.41;6330448;28;20036;-71